createdAt,value
2022-10-30T00:00:28.725Z,4.3
2022-10-30T00:05:17.027Z,4.4
2022-10-30T00:10:22.912Z,4.1
2022-10-30T00:15:28.975Z,4.0
2022-10-30T00:20:18.594Z,3.9
2022-10-30T00:25:24.061Z,3.8
2022-10-30T00:30:30.138Z,3.9
2022-10-30T00:35:19.332Z,3.7
2022-10-30T00:40:25.059Z,3.7
2022-10-30T00:45:31.077Z,3.9
2022-10-30T00:50:20.007Z,3.9
2022-10-30T00:55:26.039Z,4.3
2022-10-30T01:00:32.091Z,4.5
2022-10-30T01:05:21.428Z,4.1
2022-10-30T01:10:27.465Z,4.0
2022-10-30T01:15:16.527Z,4.3
2022-10-30T01:20:22.754Z,3.8
2022-10-30T01:25:28.788Z,3.8
2022-10-30T01:30:17.829Z,4.4
2022-10-30T01:35:23.876Z,4.5
2022-10-30T01:40:29.631Z,4.4
2022-10-30T01:45:18.537Z,4.2
2022-10-30T01:50:24.636Z,5.2
2022-10-30T01:55:30.699Z,4.3
2022-10-30T02:00:19.755Z,4.5
2022-10-30T02:05:25.050Z,4.6
2022-10-30T02:10:31.075Z,4.7
2022-10-30T02:15:20.154Z,4.6
2022-10-30T02:20:26.255Z,3.9
2022-10-30T02:25:32.411Z,3.8
2022-10-30T02:30:21.452Z,4.3
2022-10-30T02:35:27.557Z,3.9
2022-10-30T02:40:16.270Z,4.2
2022-10-30T02:45:22.204Z,4.3
2022-10-30T02:50:28.299Z,4.3
2022-10-30T02:55:17.189Z,4.5
2022-10-30T03:00:23.304Z,4.9
2022-10-30T03:05:28.601Z,5.0
2022-10-30T03:10:17.632Z,4.4
2022-10-30T03:15:23.742Z,4.0
2022-10-30T03:20:29.829Z,4.3
2022-10-30T03:25:18.832Z,4.5
2022-10-30T03:30:25.051Z,4.6
2022-10-30T03:35:31.057Z,5.2
2022-10-30T03:40:19.757Z,4.7
2022-10-30T03:45:25.839Z,5.1
2022-10-30T03:50:32.077Z,5.1
2022-10-30T03:55:20.927Z,4.9
2022-10-30T04:00:27.014Z,5.6
2022-10-30T04:05:16.274Z,4.7
2022-10-30T04:10:23.921Z,4.7
2022-10-30T04:15:28.404Z,4.8
2022-10-30T04:20:17.585Z,4.6
2022-10-30T04:25:23.531Z,4.6
2022-10-30T04:30:29.566Z,4.4
2022-10-30T04:35:18.640Z,4.7
2022-10-30T04:40:24.650Z,4.7
2022-10-30T04:45:30.639Z,4.8
2022-10-30T04:50:19.532Z,4.4
2022-10-30T04:55:28.877Z,4.9
2022-10-30T05:00:31.677Z,5.7
2022-10-30T05:05:20.437Z,4.8
2022-10-30T05:10:26.033Z,5.7
2022-10-30T05:15:32.091Z,5.4
2022-10-30T05:20:21.192Z,4.9
2022-10-30T05:25:27.185Z,5.4
2022-10-30T05:30:16.219Z,5.3
2022-10-30T05:35:22.324Z,5.1
2022-10-30T05:40:28.224Z,5.4
2022-10-30T05:45:17.121Z,5.2
2022-10-30T05:50:23.182Z,5.2
2022-10-30T05:55:29.356Z,4.9
2022-10-30T06:00:18.353Z,5.1
2022-10-30T06:05:23.610Z,5.0
2022-10-30T06:10:29.656Z,5.1
2022-10-30T06:15:18.685Z,4.5
2022-10-30T06:20:24.912Z,4.8
2022-10-30T06:25:31.660Z,4.8
2022-10-30T06:30:19.870Z,6.2
2022-10-30T06:35:25.975Z,5.4
2022-10-30T06:40:31.735Z,8.0
2022-10-30T06:45:20.832Z,5.2
2022-10-30T06:50:26.897Z,5.3
2022-10-30T06:55:15.875Z,5.3
2022-10-30T07:00:22.028Z,4.8
2022-10-30T07:05:28.331Z,5.1
2022-10-30T07:10:17.344Z,5.2
2022-10-30T07:15:23.407Z,11.7
2022-10-30T07:20:29.601Z,21.1
2022-10-30T07:25:18.530Z,18.0
2022-10-30T07:30:29.708Z,12.1
2022-10-30T07:35:30.641Z,16.1
2022-10-30T07:40:19.537Z,39.1
2022-10-30T07:45:25.504Z,44.3
2022-10-30T07:50:32.645Z,22.7
2022-10-30T07:55:21.254Z,14.5
2022-10-30T08:00:28.210Z,14.0
2022-10-30T08:05:31.900Z,11.7
2022-10-30T08:10:20.949Z,12.6
2022-10-30T08:15:27.448Z,12.8
2022-10-30T08:20:16.126Z,8.7
2022-10-30T08:25:22.331Z,9.7
2022-10-30T08:30:29.445Z,4.7
2022-10-30T08:35:20.133Z,5.3
2022-10-30T08:40:23.021Z,4.5
2022-10-30T08:45:31.093Z,4.5
2022-10-30T08:50:18.148Z,4.3
2022-10-30T08:55:24.557Z,4.3
2022-10-30T09:00:30.370Z,4.6
2022-10-30T09:05:21.562Z,6.3
2022-10-30T09:10:26.693Z,6.8
2022-10-30T09:15:16.502Z,5.8
2022-10-30T09:20:20.441Z,5.5
2022-10-30T09:25:26.716Z,5.3
2022-10-30T09:30:32.760Z,5.5
2022-10-30T09:35:21.445Z,4.8
2022-10-30T09:40:27.398Z,4.7
2022-10-30T09:45:28.714Z,4.4
2022-10-30T09:50:22.661Z,4.4
2022-10-30T09:55:29.606Z,4.7
2022-10-30T10:00:18.232Z,4.8
2022-10-30T10:05:23.450Z,4.5
2022-10-30T10:10:29.308Z,4.7
2022-10-30T10:15:18.453Z,4.6
2022-10-30T10:20:25.396Z,4.5
2022-10-30T10:25:30.470Z,4.1
2022-10-30T10:30:21.756Z,3.9
2022-10-30T10:35:25.659Z,3.9
2022-10-30T10:40:30.927Z,6.9
2022-10-30T10:45:20.010Z,3.8
2022-10-30T10:50:17.210Z,3.7
2022-10-30T10:55:32.283Z,3.7
2022-10-30T11:00:21.327Z,3.6
2022-10-30T11:05:26.709Z,3.4
2022-10-30T11:10:15.716Z,3.6
2022-10-30T11:15:21.785Z,4.9
2022-10-30T11:20:30.058Z,4.6
2022-10-30T11:25:18.846Z,3.6
2022-10-30T11:30:22.803Z,3.8
2022-10-30T11:35:28.866Z,3.3
2022-10-30T11:40:17.585Z,3.6
2022-10-30T11:45:24.033Z,3.6
2022-10-30T11:50:29.883Z,4.1
2022-10-30T11:55:18.921Z,3.9
2022-10-30T12:00:28.534Z,3.2
2022-10-30T12:05:31.318Z,3.3
2022-10-30T12:10:20.338Z,3.4
2022-10-30T12:15:26.400Z,3.6
2022-10-30T12:20:34.134Z,3.2
2022-10-30T12:25:21.320Z,3.4
2022-10-30T12:30:27.454Z,3.1
2022-10-30T12:35:19.475Z,3.2
2022-10-30T12:40:22.275Z,3.2
2022-10-30T12:45:28.271Z,3.2
2022-10-30T12:50:17.493Z,10.6
2022-10-30T12:55:25.732Z,18.3
2022-10-30T13:00:29.604Z,24.8
2022-10-30T13:05:18.126Z,3.2
2022-10-30T13:10:24.287Z,3.2
2022-10-30T13:15:30.206Z,3.2
2022-10-30T13:20:19.271Z,3.1
2022-10-30T13:25:25.181Z,4.4
2022-10-30T13:30:31.239Z,3.2
2022-10-30T13:35:20.326Z,3.1
2022-10-30T13:40:28.167Z,2.8
2022-10-30T13:45:32.040Z,3.1
2022-10-30T13:50:21.079Z,3.2
2022-10-30T13:55:27.269Z,3.0
2022-10-30T14:00:16.507Z,3.6
2022-10-30T14:05:21.938Z,3.5
2022-10-30T14:10:27.744Z,3.3
2022-10-30T14:15:16.802Z,3.6
2022-10-30T14:20:22.966Z,3.8
2022-10-30T14:25:29.008Z,3.9
2022-10-30T14:30:17.799Z,3.7
2022-10-30T14:35:24.068Z,2.9
2022-10-30T14:40:31.373Z,2.9
2022-10-30T14:45:18.982Z,3.1
2022-10-30T14:50:25.539Z,3.2
2022-10-30T14:55:31.083Z,3.1
2022-10-30T15:00:20.082Z,3.4
2022-10-30T15:05:26.852Z,3.5
2022-10-30T15:10:32.404Z,3.6
2022-10-30T15:15:21.436Z,3.0
2022-10-30T15:20:29.222Z,3.3
2022-10-30T15:25:18.629Z,3.4
2022-10-30T15:30:22.831Z,3.1
2022-10-30T15:35:28.628Z,3.1
2022-10-30T15:40:17.761Z,2.9
2022-10-30T15:45:23.706Z,3.2
2022-10-30T15:50:29.734Z,3.2
2022-10-30T15:55:18.829Z,3.2
2022-10-30T16:00:27.468Z,4.0
2022-10-30T16:05:30.259Z,7.1
2022-10-30T16:10:19.033Z,4.9
2022-10-30T16:15:26.425Z,14.6
2022-10-30T16:20:31.179Z,5.0
2022-10-30T16:25:20.249Z,3.4
2022-10-30T16:30:28.249Z,3.4
2022-10-30T16:35:35.368Z,4.1
2022-10-30T16:40:21.037Z,4.8
2022-10-30T16:45:27.062Z,5.9
2022-10-30T16:50:18.673Z,9.5
2022-10-30T16:55:22.136Z,4.2
2022-10-30T17:00:30.524Z,4.4
2022-10-30T17:05:16.767Z,7.1
2022-10-30T17:10:23.266Z,6.8
2022-10-30T17:15:28.880Z,6.8
2022-10-30T17:20:18.028Z,10.2
2022-10-30T17:25:24.262Z,13.0
2022-10-30T17:30:30.072Z,10.1
2022-10-30T17:35:19.102Z,6.4
2022-10-30T17:40:25.099Z,4.7
2022-10-30T17:45:31.190Z,5.1
2022-10-30T17:50:20.188Z,7.2
2022-10-30T17:55:26.342Z,7.4
2022-10-30T18:00:32.459Z,5.8
2022-10-30T18:05:20.649Z,5.0
2022-10-30T18:10:27.020Z,5.0
2022-10-30T18:15:15.922Z,4.5
2022-10-30T18:20:22.876Z,5.5
2022-10-30T18:25:28.024Z,5.4
2022-10-30T18:30:16.960Z,4.3
2022-10-30T18:35:25.286Z,3.6
2022-10-30T18:40:29.399Z,3.8
2022-10-30T18:45:18.431Z,3.5
2022-10-30T18:50:24.469Z,3.7
2022-10-30T18:55:30.553Z,4.6
2022-10-30T19:00:19.632Z,6.3
2022-10-30T19:05:24.930Z,5.8
2022-10-30T19:10:30.997Z,4.2
2022-10-30T19:15:19.982Z,3.8
2022-10-30T19:20:37.561Z,4.3
2022-10-30T19:25:32.303Z,4.3
2022-10-30T19:30:21.179Z,4.7
2022-10-30T19:35:27.404Z,4.6
2022-10-30T19:40:15.741Z,4.6
2022-10-30T19:45:21.659Z,5.3
2022-10-30T19:50:27.588Z,4.6
2022-10-30T19:55:16.613Z,5.7
2022-10-30T20:00:22.804Z,5.9
2022-10-30T20:05:29.087Z,5.4
2022-10-30T20:10:18.085Z,4.1
2022-10-30T20:15:24.272Z,3.9
2022-10-30T20:20:30.231Z,4.2
2022-10-30T20:25:19.241Z,4.2
2022-10-30T20:30:25.312Z,4.9
2022-10-30T20:35:31.416Z,4.6
2022-10-30T20:40:19.972Z,4.8
2022-10-30T20:45:25.923Z,5.4
2022-10-30T20:50:31.944Z,5.0
2022-10-30T20:55:21.015Z,10.1
2022-10-30T21:00:26.947Z,6.0
2022-10-30T21:05:42.103Z,5.7
2022-10-30T21:10:26.500Z,5.1
2022-10-30T21:15:28.560Z,3.9
2022-10-30T21:20:17.629Z,3.7
2022-10-30T21:25:23.503Z,4.1
2022-10-30T21:30:30.425Z,4.3
2022-10-30T21:35:18.623Z,4.0
2022-10-30T21:40:23.836Z,4.0
2022-10-30T21:45:29.894Z,3.9
2022-10-30T21:50:18.928Z,8.2
2022-10-30T21:55:25.001Z,6.3
2022-10-30T22:00:31.246Z,5.2
2022-10-30T22:05:20.409Z,5.8
2022-10-30T22:10:26.485Z,4.9
2022-10-30T22:15:32.593Z,5.7
2022-10-30T22:20:21.614Z,5.5
2022-10-30T22:25:27.630Z,6.0
2022-10-30T22:30:16.689Z,6.5
2022-10-30T22:35:22.736Z,6.3
2022-10-30T22:40:28.149Z,6.3
2022-10-30T22:45:17.229Z,7.1
2022-10-30T22:50:23.511Z,7.2
2022-10-30T22:55:29.334Z,6.8
2022-10-30T23:00:19.419Z,6.9
2022-10-30T23:05:23.817Z,7.2
2022-10-30T23:10:29.903Z,7.5
2022-10-30T23:15:18.805Z,7.9
2022-10-30T23:20:25.004Z,7.8
2022-10-30T23:25:30.945Z,7.5
2022-10-30T23:30:19.967Z,7.0
2022-10-30T23:35:26.074Z,6.9
2022-10-30T23:40:31.552Z,6.2
2022-10-30T23:45:20.732Z,6.6
2022-10-30T23:50:26.852Z,7.3
2022-10-30T23:55:15.709Z,7.0
